Time;durP1;ratioP1;P1;durP2;ratioP2;P2;SDS_P1;SDS_P2;PMS_P1;PMS_P2;Temp;Humidity;BMP_temperature;BMP_pressure;BME280_temperature;BME280_humidity;BME280_pressure;Samples;Min_cycle;Max_cycle;Signal;HPM_P1;HPM_P2
2023/12/24 00:00:06;;;;;;;8.98;6.32;;;7.90;57.80;;;;;;348294;28;837;-59
2023/12/24 00:00:16;;;;;;;9.27;6.53;;;7.90;57.80;;;;;;348190;28;1131;-59
2023/12/24 00:00:27;;;;;;;9.88;6.65;;;7.90;57.80;;;;;;348186;28;996;-58
2023/12/24 00:00:38;;;;;;;9.30;6.70;;;7.90;57.80;;;;;;348250;28;1095;-57
2023/12/24 00:00:49;;;;;;;8.68;6.53;;;7.80;57.90;;;;;;348268;28;984;-58
2023/12/24 00:01:00;;;;;;;9.10;6.65;;;7.90;57.90;;;;;;348184;28;996;-58
2023/12/24 00:01:11;;;;;;;9.55;6.57;;;7.90;57.80;;;;;;348187;28;1125;-58
2023/12/24 00:01:22;;;;;;;9.07;6.55;;;7.90;57.80;;;;;;348237;28;1250;-59
2023/12/24 00:01:33;;;;;;;8.45;6.40;;;7.90;57.80;;;;;;348180;28;1103;-57
2023/12/24 00:01:44;;;;;;;8.20;6.43;;;7.90;57.80;;;;;;348278;28;1451;-60
2023/12/24 00:01:55;;;;;;;8.85;6.50;;;7.90;57.80;;;;;;348243;28;1147;-59
2023/12/24 00:02:06;;;;;;;8.70;6.43;;;7.80;57.80;;;;;;348135;28;1033;-58
2023/12/24 00:02:16;;;;;;;8.60;6.47;;;7.90;57.80;;;;;;348291;28;980;-56
2023/12/24 00:02:27;;;;;;;8.50;6.53;;;7.90;57.90;;;;;;348234;28;1042;-58
2023/12/24 00:02:38;;;;;;;9.23;6.70;;;7.80;57.90;;;;;;348177;28;1084;-57
2023/12/24 00:02:49;;;;;;;9.13;6.65;;;7.90;57.80;;;;;;348296;28;1012;-58
2023/12/24 00:02:59;;;;;;;9.03;6.63;;;7.80;57.80;;;;;;348228;28;988;-58
2023/12/24 00:03:10;;;;;;;8.73;6.65;;;7.90;57.80;;;;;;348113;28;1498;-60
2023/12/24 00:03:21;;;;;;;9.52;6.85;;;7.90;57.80;;;;;;348222;28;1492;-59
2023/12/24 00:03:33;;;;;;;9.52;6.88;;;7.80;57.80;;;;;;348328;28;826;-60
2023/12/24 00:03:44;;;;;;;9.05;6.70;;;7.80;57.80;;;;;;348214;28;954;-57
2023/12/24 00:03:54;;;;;;;8.75;6.50;;;7.80;57.90;;;;;;348233;28;1296;-58
2023/12/24 00:04:05;;;;;;;8.60;6.60;;;7.80;57.90;;;;;;348247;28;984;-58
2023/12/24 00:04:16;;;;;;;8.55;6.45;;;7.90;57.90;;;;;;348191;28;881;-59
2023/12/24 00:04:27;;;;;;;9.55;6.45;;;7.90;57.90;;;;;;348240;28;1091;-58
2023/12/24 00:04:38;;;;;;;10.65;6.53;;;7.80;57.90;;;;;;348305;28;1102;-57
2023/12/24 00:04:49;;;;;;;10.48;6.65;;;7.80;57.90;;;;;;348172;28;1268;-58
2023/12/24 00:05:00;;;;;;;9.10;6.70;;;7.80;57.90;;;;;;348225;28;1536;-58
2023/12/24 00:05:11;;;;;;;9.32;6.72;;;7.80;57.90;;;;;;348254;28;838;-59
2023/12/24 00:05:22;;;;;;;9.20;6.63;;;7.80;57.90;;;;;;348196;28;1039;-57
2023/12/24 00:05:32;;;;;;;9.80;7.00;;;7.90;57.90;;;;;;348224;28;949;-57
2023/12/24 00:05:43;;;;;;;10.18;7.07;;;7.80;57.90;;;;;;348226;28;2674;-58
2023/12/24 00:05:55;;;;;;;10.02;7.00;;;7.90;57.90;;;;;;348171;28;1070;-59
2023/12/24 00:06:06;;;;;;;9.70;6.75;;;7.90;57.90;;;;;;348228;28;1984;-58
2023/12/24 00:06:17;;;;;;;9.55;6.72;;;7.80;57.80;;;;;;348234;28;1107;-58
2023/12/24 00:06:28;;;;;;;9.55;6.72;;;7.80;57.90;;;;;;348119;28;1560;-59
2023/12/24 00:06:38;;;;;;;9.73;6.90;;;7.80;57.90;;;;;;348252;28;932;-58
2023/12/24 00:06:49;;;;;;;9.43;6.70;;;7.80;57.90;;;;;;348263;28;1079;-59
2023/12/24 00:07:00;;;;;;;9.10;6.95;;;7.80;57.90;;;;;;348188;28;1089;-60
2023/12/24 00:07:11;;;;;;;10.15;6.95;;;7.90;57.90;;;;;;348227;28;1122;-58
2023/12/24 00:07:21;;;;;;;10.05;6.97;;;7.80;57.80;;;;;;348231;28;1051;-58
2023/12/24 00:07:32;;;;;;;9.80;6.83;;;7.90;57.80;;;;;;348229;28;1041;-59
2023/12/24 00:07:43;;;;;;;8.77;6.95;;;7.90;57.80;;;;;;348259;28;858;-58
2023/12/24 00:07:53;;;;;;;9.00;6.97;;;7.90;57.80;;;;;;348220;28;1202;-59
2023/12/24 00:08:05;;;;;;;10.45;7.15;;;7.90;57.70;;;;;;348134;28;1075;-58
2023/12/24 00:08:16;;;;;;;10.82;7.18;;;7.90;57.70;;;;;;348251;28;1055;-59
2023/12/24 00:08:28;;;;;;;11.30;7.20;;;7.90;57.60;;;;;;348272;28;937;-58
2023/12/24 00:08:39;;;;;;;10.04;6.96;;;7.90;57.60;;;;;;348163;28;940;-58
2023/12/24 00:08:50;;;;;;;9.07;6.80;;;7.90;57.60;;;;;;348184;28;1386;-59
2023/12/24 00:09:00;;;;;;;9.15;6.65;;;7.90;57.60;;;;;;348254;28;1645;-58
2023/12/24 00:09:11;;;;;;;8.52;6.57;;;7.90;57.60;;;;;;348078;28;1914;-60
2023/12/24 00:09:22;;;;;;;8.77;6.60;;;7.90;57.60;;;;;;348270;28;1044;-59
2023/12/24 00:09:33;;;;;;;9.20;6.80;;;7.90;57.50;;;;;;348295;28;980;-58
2023/12/24 00:09:43;;;;;;;9.03;6.90;;;7.90;57.50;;;;;;348169;28;927;-61
2023/12/24 00:09:54;;;;;;;9.18;6.90;;;7.90;57.50;;;;;;348256;28;984;-58
2023/12/24 00:10:05;;;;;;;9.23;7.05;;;7.90;57.60;;;;;;348293;28;826;-57
2023/12/24 00:10:16;;;;;;;10.07;7.47;;;7.80;57.60;;;;;;348175;28;917;-58
2023/12/24 00:10:27;;;;;;;10.68;7.50;;;7.90;57.60;;;;;;348192;28;1705;-59
2023/12/24 00:10:38;;;;;;;11.18;7.70;;;7.90;57.60;;;;;;348263;28;1819;-57
2023/12/24 00:10:48;;;;;;;10.70;7.25;;;7.90;57.60;;;;;;348112;28;1115;-59
2023/12/24 00:10:59;;;;;;;9.57;7.03;;;7.80;57.60;;;;;;348289;28;1032;-58
2023/12/24 00:11:10;;;;;;;9.23;6.60;;;7.90;57.60;;;;;;348237;28;1278;-59
2023/12/24 00:11:21;;;;;;;8.70;6.75;;;7.80;57.60;;;;;;348175;28;1048;-58
2023/12/24 00:11:32;;;;;;;8.75;6.97;;;7.90;57.60;;;;;;348227;28;1064;-58
2023/12/24 00:11:42;;;;;;;8.50;6.97;;;7.90;57.60;;;;;;348276;28;945;-59
2023/12/24 00:11:53;;;;;;;9.73;7.28;;;7.90;57.60;;;;;;348207;28;964;-58
2023/12/24 00:12:04;;;;;;;10.15;7.25;;;7.90;57.60;;;;;;348284;28;1032;-58
2023/12/24 00:12:15;;;;;;;9.98;7.47;;;7.90;57.60;;;;;;348244;28;892;-57
2023/12/24 00:12:26;;;;;;;9.18;7.55;;;7.80;57.60;;;;;;348139;28;1146;-58
2023/12/24 00:12:37;;;;;;;8.93;7.47;;;7.80;57.70;;;;;;348243;28;1076;-59
2023/12/24 00:12:48;;;;;;;8.82;7.25;;;7.80;57.70;;;;;;348241;28;1024;-60
2023/12/24 00:12:59;;;;;;;8.60;6.90;;;7.80;57.70;;;;;;348159;28;888;-58
2023/12/24 00:13:10;;;;;;;9.15;6.97;;;7.80;57.70;;;;;;348274;28;1843;-59
2023/12/24 00:13:20;;;;;;;9.63;7.07;;;7.90;57.70;;;;;;348310;28;852;-59
2023/12/24 00:13:32;;;;;;;10.60;7.18;;;7.80;57.60;;;;;;348178;28;1575;-58
2023/12/24 00:13:42;;;;;;;10.55;7.30;;;7.80;57.60;;;;;;348250;28;1044;-58
2023/12/24 00:13:53;;;;;;;10.20;7.40;;;7.90;57.70;;;;;;348141;28;1097;-58
2023/12/24 00:14:04;;;;;;;10.52;7.00;;;7.90;57.70;;;;;;348179;28;2270;-58
2023/12/24 00:14:15;;;;;;;10.98;7.15;;;7.80;57.70;;;;;;348170;28;1017;-58
2023/12/24 00:14:26;;;;;;;9.90;7.13;;;7.80;57.70;;;;;;348253;28;1836;-60
2023/12/24 00:14:37;;;;;;;9.45;7.32;;;7.80;57.70;;;;;;348228;28;1044;-58
2023/12/24 00:14:48;;;;;;;9.63;7.43;;;7.80;57.70;;;;;;348261;28;944;-58
2023/12/24 00:15:00;;;;;;;9.37;7.50;;;7.80;57.60;;;;;;348216;28;1076;-59
2023/12/24 00:15:11;;;;;;;9.18;7.40;;;7.90;57.60;;;;;;348233;28;1083;-58
2023/12/24 00:15:22;;;;;;;10.35;7.43;;;7.90;57.60;;;;;;348098;28;1183;-59
2023/12/24 00:15:32;;;;;;;10.50;7.40;;;7.80;57.60;;;;;;348225;28;826;-57
2023/12/24 00:15:44;;;;;;;11.07;7.43;;;7.80;57.60;;;;;;348198;28;1027;-57
2023/12/24 00:15:55;;;;;;;11.15;7.68;;;7.80;57.60;;;;;;348212;28;1080;-58
2023/12/24 00:16:06;;;;;;;11.75;8.00;;;7.90;57.60;;;;;;348144;28;1028;-58
2023/12/24 00:16:17;;;;;;;10.25;7.82;;;7.80;57.60;;;;;;348254;28;1026;-59
2023/12/24 00:16:28;;;;;;;11.13;7.87;;;7.80;57.60;;;;;;348212;28;903;-57
2023/12/24 00:16:41;;;;;;;11.45;7.97;;;7.80;57.60;;;;;;348245;28;1501;-58
2023/12/24 00:16:52;;;;;;;11.90;8.30;;;7.80;57.60;;;;;;348135;28;1348;-58
2023/12/24 00:17:03;;;;;;;12.00;8.27;;;7.80;57.60;;;;;;348268;28;1036;-58
2023/12/24 00:17:14;;;;;;;13.30;8.23;;;7.80;57.60;;;;;;348141;28;1812;-60
2023/12/24 00:17:25;;;;;;;12.85;7.90;;;7.80;57.50;;;;;;348147;28;877;-59
2023/12/24 00:17:35;;;;;;;12.77;7.70;;;7.80;57.50;;;;;;348075;28;1076;-59
2023/12/24 00:17:46;;;;;;;11.35;7.85;;;7.80;57.50;;;;;;348089;28;1386;-58
2023/12/24 00:17:57;;;;;;;11.20;7.90;;;7.80;57.60;;;;;;348084;28;907;-60
2023/12/24 00:18:08;;;;;;;10.77;7.90;;;7.80;57.60;;;;;;348064;28;1419;-58
2023/12/24 00:18:19;;;;;;;11.13;7.95;;;7.80;57.60;;;;;;348058;28;935;-60
2023/12/24 00:18:30;;;;;;;11.30;8.15;;;7.80;57.50;;;;;;348141;28;933;-57
2023/12/24 00:18:40;;;;;;;12.32;8.13;;;7.80;57.50;;;;;;348113;28;1692;-58
2023/12/24 00:18:51;;;;;;;11.75;7.78;;;7.80;57.50;;;;;;348160;28;826;-57
2023/12/24 00:19:02;;;;;;;12.52;7.70;;;7.80;57.50;;;;;;348127;28;1040;-57
2023/12/24 00:19:13;;;;;;;11.75;7.70;;;7.80;57.50;;;;;;348049;28;1068;-60
2023/12/24 00:19:23;;;;;;;11.43;7.70;;;7.80;57.50;;;;;;348253;28;989;-58
2023/12/24 00:19:34;;;;;;;11.77;7.70;;;7.80;57.50;;;;;;348225;28;992;-58
2023/12/24 00:19:45;;;;;;;11.95;7.80;;;7.80;57.60;;;;;;348309;28;989;-57
2023/12/24 00:19:56;;;;;;;12.57;7.90;;;7.80;57.60;;;;;;348278;28;996;-58
2023/12/24 00:20:07;;;;;;;11.88;7.95;;;7.80;57.70;;;;;;348182;28;1083;-60
2023/12/24 00:20:18;;;;;;;11.70;7.97;;;7.80;57.70;;;;;;348232;28;1005;-61
2023/12/24 00:20:29;;;;;;;12.32;8.02;;;7.80;57.70;;;;;;348291;28;1533;-58
2023/12/24 00:20:39;;;;;;;12.68;8.13;;;7.80;57.70;;;;;;348261;28;1001;-58
2023/12/24 00:20:50;;;;;;;11.45;7.88;;;7.80;57.70;;;;;;348250;28;1114;-59
2023/12/24 00:21:01;;;;;;;10.03;7.57;;;7.80;57.70;;;;;;348204;28;992;-58
2023/12/24 00:21:13;;;;;;;9.52;7.72;;;7.80;57.70;;;;;;348240;28;1806;-60
2023/12/24 00:21:24;;;;;;;9.93;7.68;;;7.80;57.70;;;;;;348164;28;1083;-58
2023/12/24 00:21:35;;;;;;;10.10;7.60;;;7.80;57.70;;;;;;348203;28;1004;-57
2023/12/24 00:21:46;;;;;;;9.90;7.53;;;7.80;57.70;;;;;;348206;28;1440;-58
2023/12/24 00:21:56;;;;;;;10.85;8.00;;;7.80;57.70;;;;;;348167;28;1028;-59
2023/12/24 00:22:07;;;;;;;11.45;8.10;;;7.80;57.70;;;;;;348216;28;1759;-58
2023/12/24 00:22:18;;;;;;;12.55;8.23;;;7.80;57.70;;;;;;348242;28;1011;-58
2023/12/24 00:22:29;;;;;;;12.37;8.10;;;7.80;57.70;;;;;;348267;28;834;-58
2023/12/24 00:22:40;;;;;;;11.90;8.07;;;7.80;57.80;;;;;;348227;28;1577;-58
2023/12/24 00:23:07;;;;;;;10.93;8.13;;;7.80;57.80;;;;;;348163;28;1020;-57
2023/12/24 00:23:18;;;;;;;10.30;8.05;;;7.80;57.80;;;;;;348200;28;1182;-58
2023/12/24 00:23:29;;;;;;;11.23;8.48;;;7.80;57.80;;;;;;348246;28;1076;-58
2023/12/24 00:23:40;;;;;;;12.20;8.50;;;7.80;57.80;;;;;;348182;28;1015;-57
2023/12/24 00:23:50;;;;;;;11.43;8.35;;;7.80;57.80;;;;;;348240;28;1083;-58
2023/12/24 00:24:01;;;;;;;11.80;8.07;;;7.80;57.80;;;;;;348246;28;1288;-57
2023/12/24 00:24:12;;;;;;;12.02;7.93;;;7.80;57.80;;;;;;348230;28;1024;-60
2023/12/24 00:24:23;;;;;;;12.70;8.05;;;7.80;57.80;;;;;;348171;28;911;-58
2023/12/24 00:24:33;;;;;;;13.57;8.75;;;7.80;57.80;;;;;;348240;28;1301;-58
2023/12/24 00:24:45;;;;;;;12.93;8.98;;;7.80;57.80;;;;;;348189;28;1209;-58
2023/12/24 00:24:56;;;;;;;13.32;9.25;;;7.80;57.80;;;;;;348127;28;1363;-58
2023/12/24 00:25:07;;;;;;;12.68;9.07;;;7.80;57.80;;;;;;348164;28;1778;-58
2023/12/24 00:25:17;;;;;;;12.48;8.73;;;7.80;57.80;;;;;;348009;28;1533;-57
2023/12/24 00:25:28;;;;;;;10.98;8.43;;;7.80;57.80;;;;;;348034;28;1618;-59
2023/12/24 00:25:40;;;;;;;10.43;8.38;;;7.80;57.80;;;;;;348101;28;1083;-58
2023/12/24 00:25:51;;;;;;;10.77;8.57;;;7.80;57.80;;;;;;348134;28;862;-58
2023/12/24 00:26:02;;;;;;;12.38;8.90;;;7.80;57.80;;;;;;348008;28;1092;-60
2023/12/24 00:26:12;;;;;;;12.30;8.70;;;7.80;57.80;;;;;;348086;28;1942;-58
2023/12/24 00:26:23;;;;;;;12.00;8.48;;;7.80;57.80;;;;;;348068;28;1909;-58
2023/12/24 00:26:34;;;;;;;11.07;8.38;;;7.80;57.90;;;;;;348108;28;1008;-58
2023/12/24 00:26:45;;;;;;;11.00;8.55;;;7.80;57.80;;;;;;348062;28;1437;-58
2023/12/24 00:26:55;;;;;;;11.20;8.48;;;7.80;57.80;;;;;;348231;28;1182;-58
2023/12/24 00:27:06;;;;;;;10.97;8.23;;;7.80;57.80;;;;;;348283;28;846;-57
2023/12/24 00:27:17;;;;;;;11.60;8.50;;;7.80;57.80;;;;;;348165;28;1072;-59
2023/12/24 00:27:28;;;;;;;12.70;8.73;;;7.80;57.80;;;;;;348266;28;1083;-59
2023/12/24 00:27:38;;;;;;;12.63;8.65;;;7.80;57.80;;;;;;348123;28;1028;-58
2023/12/24 00:27:49;;;;;;;12.15;8.55;;;7.80;57.80;;;;;;348214;28;1004;-58
2023/12/24 00:28:00;;;;;;;11.70;8.47;;;7.80;57.80;;;;;;348292;28;965;-58
2023/12/24 00:28:11;;;;;;;11.73;8.52;;;7.80;57.80;;;;;;348236;28;1012;-57
2023/12/24 00:28:21;;;;;;;10.93;8.13;;;7.80;57.80;;;;;;348248;28;993;-58
2023/12/24 00:28:32;;;;;;;10.77;8.00;;;7.80;57.80;;;;;;348144;28;2102;-58
2023/12/24 00:28:44;;;;;;;10.15;7.65;;;7.80;57.80;;;;;;348227;28;1877;-58
2023/12/24 00:28:55;;;;;;;9.70;7.80;;;7.80;57.80;;;;;;348253;28;1882;-59
2023/12/24 00:29:05;;;;;;;10.23;8.05;;;7.80;57.80;;;;;;348232;28;782;-57
2023/12/24 00:29:16;;;;;;;10.77;8.40;;;7.80;57.80;;;;;;348060;28;1922;-58
2023/12/24 00:29:27;;;;;;;11.07;8.35;;;7.80;57.80;;;;;;348253;28;1032;-57
2023/12/24 00:29:38;;;;;;;12.77;8.63;;;7.80;57.70;;;;;;348166;28;2236;-58
2023/12/24 00:29:49;;;;;;;13.48;8.45;;;7.80;57.70;;;;;;348223;28;1119;-58
2023/12/24 00:29:59;;;;;;;13.83;8.80;;;7.80;57.70;;;;;;348155;28;1123;-58
2023/12/24 00:30:11;;;;;;;12.65;8.70;;;7.80;57.70;;;;;;348271;28;1001;-58
2023/12/24 00:30:21;;;;;;;12.02;8.73;;;7.80;57.60;;;;;;348233;28;929;-58
2023/12/24 00:30:32;;;;;;;11.40;8.50;;;7.80;57.60;;;;;;348249;28;1977;-58
2023/12/24 00:30:45;;;;;;;12.23;8.40;;;7.80;57.60;;;;;;348185;28;1074;-59
2023/12/24 00:30:55;;;;;;;12.52;8.45;;;7.80;57.50;;;;;;348257;28;869;-58
2023/12/24 00:31:06;;;;;;;11.18;8.07;;;7.80;57.60;;;;;;348291;28;1047;-58
2023/12/24 00:31:17;;;;;;;9.67;7.70;;;7.80;57.50;;;;;;348236;28;1059;-58
2023/12/24 00:31:28;;;;;;;10.20;7.78;;;7.80;57.50;;;;;;348130;28;981;-59
2023/12/24 00:31:39;;;;;;;11.07;8.07;;;7.80;57.50;;;;;;348239;28;1159;-58
2023/12/24 00:31:50;;;;;;;12.43;8.45;;;7.80;57.50;;;;;;348252;28;1032;-57
2023/12/24 00:32:00;;;;;;;11.80;8.30;;;7.80;57.50;;;;;;348218;28;1928;-58
2023/12/24 00:32:11;;;;;;;11.75;8.30;;;7.80;57.50;;;;;;348221;28;1055;-58
2023/12/24 00:32:22;;;;;;;11.70;8.43;;;7.80;57.50;;;;;;348250;28;933;-58
2023/12/24 00:32:33;;;;;;;12.35;8.18;;;7.80;57.50;;;;;;348274;28;826;-58
2023/12/24 00:32:43;;;;;;;11.87;8.07;;;7.80;57.50;;;;;;348246;28;1107;-58
2023/12/24 00:32:59;;;;;;;11.50;8.00;;;7.80;57.50;;;;;;348176;28;1032;-57
2023/12/24 00:33:10;;;;;;;10.70;8.25;;;7.80;57.50;;;;;;348269;28;850;-57
2023/12/24 00:33:21;;;;;;;11.13;8.37;;;7.80;57.50;;;;;;348238;28;830;-57
2023/12/24 00:33:32;;;;;;;11.45;8.10;;;7.80;57.50;;;;;;348258;28;1516;-57
2023/12/24 00:33:42;;;;;;;11.10;8.13;;;7.80;57.40;;;;;;348156;28;1436;-58
2023/12/24 00:33:53;;;;;;;10.87;8.23;;;7.80;57.40;;;;;;348273;28;1015;-58
2023/12/24 00:34:04;;;;;;;10.77;8.15;;;7.80;57.40;;;;;;348241;28;857;-58
2023/12/24 00:34:15;;;;;;;12.15;7.95;;;7.80;57.30;;;;;;348198;28;1036;-57
2023/12/24 00:34:25;;;;;;;11.65;7.68;;;7.80;57.30;;;;;;348216;28;1052;-56
2023/12/24 00:34:36;;;;;;;11.88;7.65;;;7.80;57.20;;;;;;348255;28;838;-58
2023/12/24 00:34:47;;;;;;;11.63;7.93;;;7.80;57.20;;;;;;348226;28;1000;-57
2023/12/24 00:34:58;;;;;;;12.50;7.90;;;7.80;57.20;;;;;;348227;28;1281;-58
2023/12/24 00:35:11;;;;;;;12.05;7.72;;;7.80;57.20;;;;;;348111;28;2345;-58
2023/12/24 00:35:22;;;;;;;11.45;7.55;;;7.80;57.20;;;;;;348172;28;1401;-58
2023/12/24 00:35:34;;;;;;;11.02;7.50;;;7.80;57.20;;;;;;348233;28;1448;-58
2023/12/24 00:35:44;;;;;;;10.50;7.30;;;7.80;57.20;;;;;;348082;28;1473;-58
2023/12/24 00:35:55;;;;;;;10.45;7.45;;;7.80;57.10;;;;;;348302;28;838;-58
2023/12/24 00:36:06;;;;;;;11.07;7.30;;;7.80;57.10;;;;;;348228;28;2022;-58
2023/12/24 00:36:17;;;;;;;11.13;7.35;;;7.80;57.00;;;;;;348196;28;1523;-59
2023/12/24 00:36:28;;;;;;;11.15;7.43;;;7.80;57.00;;;;;;348106;28;1119;-58
2023/12/24 00:36:38;;;;;;;10.57;7.43;;;7.80;57.00;;;;;;348239;28;1036;-57
2023/12/24 00:36:49;;;;;;;10.83;7.43;;;7.80;57.10;;;;;;348250;28;948;-57
2023/12/24 00:37:00;;;;;;;10.75;7.45;;;7.80;57.10;;;;;;348286;28;908;-58
2023/12/24 00:37:11;;;;;;;11.55;7.88;;;7.80;57.10;;;;;;348162;28;1040;-58
2023/12/24 00:37:21;;;;;;;10.70;7.72;;;7.80;57.10;;;;;;348263;28;1009;-59
2023/12/24 00:37:32;;;;;;;9.93;7.60;;;7.80;57.10;;;;;;348393;28;1171;-58
2023/12/24 00:37:43;;;;;;;9.63;7.67;;;7.80;57.10;;;;;;348517;28;1036;-59
2023/12/24 00:37:58;;;;;;;10.32;8.18;;;7.80;57.10;;;;;;348358;28;1473;-57
2023/12/24 00:38:09;;;;;;;10.63;8.20;;;7.80;57.00;;;;;;348430;28;1697;-58
2023/12/24 00:38:19;;;;;;;10.73;7.70;;;7.80;57.10;;;;;;348484;28;1087;-57
2023/12/24 00:38:30;;;;;;;10.90;7.55;;;7.80;57.10;;;;;;348459;28;1059;-58
2023/12/24 00:38:41;;;;;;;11.00;7.68;;;7.80;57.10;;;;;;348497;28;1112;-57
2023/12/24 00:38:51;;;;;;;10.77;7.67;;;7.80;57.10;;;;;;348557;28;1765;-58
2023/12/24 00:39:03;;;;;;;10.63;7.53;;;7.80;57.10;;;;;;348450;28;1012;-59
2023/12/24 00:39:14;;;;;;;10.27;7.18;;;7.80;57.10;;;;;;348455;28;1114;-57
2023/12/24 00:39:25;;;;;;;10.25;7.10;;;7.80;57.10;;;;;;348515;28;870;-58
2023/12/24 00:39:35;;;;;;;10.73;7.27;;;7.80;57.10;;;;;;348453;28;1033;-58
2023/12/24 00:39:46;;;;;;;10.93;7.63;;;7.80;57.10;;;;;;348538;28;1103;-58
2023/12/24 00:39:57;;;;;;;11.15;7.97;;;7.80;57.20;;;;;;348544;28;934;-58
2023/12/24 00:40:08;;;;;;;10.77;8.00;;;7.80;57.20;;;;;;348421;28;965;-58
2023/12/24 00:40:20;;;;;;;10.93;8.07;;;7.80;57.10;;;;;;348497;28;993;-58
2023/12/24 00:40:31;;;;;;;10.95;7.88;;;7.80;57.20;;;;;;348418;28;1040;-57
2023/12/24 00:40:42;;;;;;;11.15;7.78;;;7.80;57.20;;;;;;348557;28;961;-57
2023/12/24 00:40:53;;;;;;;11.38;7.40;;;7.80;57.20;;;;;;348499;28;1104;-58
2023/12/24 00:41:03;;;;;;;11.10;7.45;;;7.80;57.20;;;;;;348414;28;1060;-58
2023/12/24 00:41:14;;;;;;;10.57;7.32;;;7.80;57.20;;;;;;348441;28;1139;-57
2023/12/24 00:41:25;;;;;;;10.40;7.30;;;7.80;57.30;;;;;;348493;28;1408;-59
2023/12/24 00:41:39;;;;;;;9.30;7.53;;;7.70;57.20;;;;;;348398;28;1087;-58
2023/12/24 00:41:49;;;;;;;9.63;7.70;;;7.70;57.20;;;;;;348458;28;1194;-57
2023/12/24 00:42:00;;;;;;;9.95;7.68;;;7.70;57.30;;;;;;348426;28;996;-57
2023/12/24 00:42:11;;;;;;;10.75;7.90;;;7.70;57.20;;;;;;348528;28;896;-58
2023/12/24 00:42:23;;;;;;;11.03;8.07;;;7.70;57.20;;;;;;348446;28;1117;-58
2023/12/24 00:42:33;;;;;;;10.00;7.65;;;7.70;57.20;;;;;;348448;28;1067;-57
2023/12/24 00:42:45;;;;;;;9.13;7.30;;;7.70;57.20;;;;;;348487;28;1143;-57
2023/12/24 00:42:55;;;;;;;9.13;7.20;;;7.70;57.20;;;;;;348368;28;1052;-57
2023/12/24 00:43:06;;;;;;;10.27;7.57;;;7.70;57.20;;;;;;348483;28;1161;-57
2023/12/24 00:43:17;;;;;;;10.30;7.78;;;7.70;57.20;;;;;;348496;28;849;-57
2023/12/24 00:43:28;;;;;;;10.93;7.45;;;7.70;57.20;;;;;;348407;28;1103;-57
2023/12/24 00:43:38;;;;;;;10.65;7.22;;;7.70;57.20;;;;;;348503;28;988;-58
2023/12/24 00:43:49;;;;;;;11.55;7.57;;;7.70;57.30;;;;;;348488;28;1051;-57
2023/12/24 00:44:00;;;;;;;11.57;7.93;;;7.70;57.30;;;;;;348435;28;1068;-59
2023/12/24 00:44:11;;;;;;;12.02;8.20;;;7.70;57.30;;;;;;348479;28;932;-58
2023/12/24 00:44:21;;;;;;;10.93;7.97;;;7.70;57.30;;;;;;348478;28;1004;-58
2023/12/24 00:44:32;;;;;;;10.05;7.68;;;7.70;57.30;;;;;;348475;28;908;-58
2023/12/24 00:44:43;;;;;;;10.38;7.40;;;7.70;57.30;;;;;;348485;28;924;-58
2023/12/24 00:44:54;;;;;;;10.85;7.55;;;7.70;57.20;;;;;;348415;28;1099;-59
2023/12/24 00:45:06;;;;;;;11.07;7.57;;;7.70;57.30;;;;;;348416;28;996;-58
2023/12/24 00:45:16;;;;;;;10.73;7.45;;;7.70;57.30;;;;;;348429;28;1091;-58
2023/12/24 00:45:29;;;;;;;10.07;7.43;;;7.70;57.30;;;;;;348468;28;1091;-58
2023/12/24 00:45:40;;;;;;;10.00;7.57;;;7.70;57.30;;;;;;348457;28;1095;-59
2023/12/24 00:45:51;;;;;;;11.10;7.72;;;7.70;57.30;;;;;;348499;28;1017;-59
2023/12/24 00:46:02;;;;;;;11.25;7.28;;;7.70;57.30;;;;;;348410;28;1029;-59
2023/12/24 00:46:16;;;;;;;11.43;7.10;;;7.70;57.30;;;;;;348385;28;1084;-57
2023/12/24 00:46:26;;;;;;;10.38;7.07;;;7.70;57.30;;;;;;348482;28;1036;-58
2023/12/24 00:46:38;;;;;;;10.13;7.57;;;7.70;57.30;;;;;;348432;28;961;-58
2023/12/24 00:46:48;;;;;;;10.95;7.80;;;7.70;57.40;;;;;;348460;28;1135;-58
2023/12/24 00:46:59;;;;;;;12.20;7.90;;;7.70;57.30;;;;;;348498;28;1336;-57
2023/12/24 00:47:10;;;;;;;11.52;7.45;;;7.70;57.40;;;;;;348441;28;1017;-58
2023/12/24 00:47:21;;;;;;;11.40;7.43;;;7.70;57.40;;;;;;348361;28;1263;-57
2023/12/24 00:47:31;;;;;;;10.25;7.35;;;7.70;57.40;;;;;;348474;28;985;-58
2023/12/24 00:47:42;;;;;;;10.20;7.35;;;7.70;57.40;;;;;;348503;28;921;-57
2023/12/24 00:47:53;;;;;;;9.77;7.50;;;7.70;57.40;;;;;;348451;28;1040;-57
2023/12/24 00:48:04;;;;;;;10.20;7.53;;;7.70;57.40;;;;;;348485;28;1116;-56
2023/12/24 00:48:15;;;;;;;10.82;7.90;;;7.70;57.40;;;;;;348395;28;1012;-58
2023/12/24 00:48:25;;;;;;;10.77;7.77;;;7.70;57.40;;;;;;348464;28;1161;-57
2023/12/24 00:48:36;;;;;;;10.13;7.75;;;7.70;57.50;;;;;;348474;28;1506;-58
2023/12/24 00:48:47;;;;;;;9.73;7.60;;;7.60;57.50;;;;;;348526;28;924;-58
2023/12/24 00:48:58;;;;;;;10.32;7.55;;;7.70;57.50;;;;;;348425;28;1113;-58
2023/12/24 00:49:09;;;;;;;10.80;7.70;;;7.70;57.50;;;;;;348524;28;1016;-58
2023/12/24 00:49:19;;;;;;;10.77;7.80;;;7.70;57.50;;;;;;348427;28;1961;-58
2023/12/24 00:49:30;;;;;;;10.55;7.70;;;7.60;57.60;;;;;;348495;28;916;-58
2023/12/24 00:49:41;;;;;;;12.68;7.78;;;7.70;57.60;;;;;;348422;28;903;-57
2023/12/24 00:49:52;;;;;;;13.27;7.45;;;7.70;57.60;;;;;;348521;28;889;-58
2023/12/24 00:50:03;;;;;;;13.63;7.72;;;7.60;57.60;;;;;;348481;28;1032;-57
2023/12/24 00:50:14;;;;;;;12.77;7.80;;;7.70;57.60;;;;;;348398;28;1091;-58
2023/12/24 00:50:25;;;;;;;12.73;7.70;;;7.70;57.60;;;;;;348423;28;971;-57
2023/12/24 00:50:36;;;;;;;13.43;7.57;;;7.60;57.70;;;;;;348448;28;1702;-59
2023/12/24 00:50:46;;;;;;;12.75;7.63;;;7.70;57.70;;;;;;348446;28;1129;-58
2023/12/24 00:50:57;;;;;;;12.23;7.65;;;7.70;57.70;;;;;;348436;28;1096;-57
2023/12/24 00:51:08;;;;;;;11.00;7.80;;;7.70;57.70;;;;;;348399;28;1040;-57
2023/12/24 00:51:19;;;;;;;11.13;8.03;;;7.70;57.70;;;;;;348470;28;1027;-57
2023/12/24 00:51:29;;;;;;;11.18;7.93;;;7.70;57.70;;;;;;348478;28;1272;-58
2023/12/24 00:51:44;;;;;;;10.45;7.78;;;7.60;57.70;;;;;;348519;28;1099;-58
2023/12/24 00:51:56;;;;;;;10.63;7.72;;;7.60;57.60;;;;;;348420;28;979;-59
2023/12/24 00:52:06;;;;;;;10.45;7.55;;;7.60;57.70;;;;;;348494;28;991;-58
2023/12/24 00:52:17;;;;;;;10.18;7.45;;;7.70;57.70;;;;;;348531;28;841;-58
2023/12/24 00:52:28;;;;;;;9.88;7.43;;;7.70;57.60;;;;;;348380;28;2111;-57
2023/12/24 00:52:38;;;;;;;11.23;7.70;;;7.70;57.70;;;;;;348479;28;1833;-58
2023/12/24 00:52:49;;;;;;;12.50;7.67;;;7.60;57.60;;;;;;348515;28;977;-58
2023/12/24 00:53:00;;;;;;;12.55;7.90;;;7.70;57.60;;;;;;348529;28;1091;-59
2023/12/24 00:53:11;;;;;;;11.73;7.97;;;7.70;57.70;;;;;;348430;28;1309;-58
2023/12/24 00:53:21;;;;;;;10.93;7.93;;;7.70;57.70;;;;;;348457;28;1091;-57
2023/12/24 00:53:32;;;;;;;11.13;7.90;;;7.70;57.70;;;;;;348530;28;1004;-57
2023/12/24 00:53:43;;;;;;;10.93;7.83;;;7.60;57.70;;;;;;348504;28;1083;-57
2023/12/24 00:53:54;;;;;;;10.52;7.72;;;7.60;57.70;;;;;;348468;28;1573;-59
2023/12/24 00:54:05;;;;;;;9.88;7.43;;;7.60;57.70;;;;;;348407;28;1028;-58
2023/12/24 00:54:16;;;;;;;9.80;7.65;;;7.70;57.80;;;;;;348443;28;1092;-58
2023/12/24 00:54:27;;;;;;;11.47;7.97;;;7.60;57.70;;;;;;348476;28;1067;-57
2023/12/24 00:54:37;;;;;;;12.13;8.20;;;7.70;57.70;;;;;;348547;28;916;-58
2023/12/24 00:54:48;;;;;;;13.25;8.25;;;7.70;57.60;;;;;;348495;28;1606;-57
2023/12/24 00:54:59;;;;;;;12.32;8.27;;;7.60;57.70;;;;;;348424;28;996;-57
2023/12/24 00:55:10;;;;;;;10.73;8.03;;;7.70;57.70;;;;;;348478;28;1008;-57
2023/12/24 00:55:21;;;;;;;10.70;7.57;;;7.60;57.60;;;;;;348409;28;613;-57
2023/12/24 00:55:32;;;;;;;11.40;7.68;;;7.60;57.60;;;;;;348538;28;977;-59
2023/12/24 00:55:42;;;;;;;12.32;7.88;;;7.70;57.60;;;;;;348523;28;1064;-58
2023/12/24 00:55:53;;;;;;;11.60;8.38;;;7.70;57.60;;;;;;348420;28;1698;-58
2023/12/24 00:56:04;;;;;;;10.98;8.35;;;7.60;57.60;;;;;;348480;28;1056;-58
2023/12/24 00:56:15;;;;;;;10.63;8.23;;;7.60;57.60;;;;;;348460;28;881;-57
2023/12/24 00:56:26;;;;;;;10.52;7.95;;;7.60;57.60;;;;;;348493;28;1159;-58
2023/12/24 00:56:36;;;;;;;10.48;7.80;;;7.60;57.60;;;;;;348464;28;1032;-57
2023/12/24 00:56:47;;;;;;;10.77;8.03;;;7.60;57.60;;;;;;348397;28;1032;-57
2023/12/24 00:56:58;;;;;;;11.53;8.13;;;7.70;57.60;;;;;;348369;28;1188;-57
2023/12/24 00:57:09;;;;;;;11.63;8.05;;;7.60;57.60;;;;;;348483;28;820;-58
2023/12/24 00:57:19;;;;;;;10.55;7.53;;;7.60;57.70;;;;;;348478;28;1351;-58
2023/12/24 00:57:30;;;;;;;9.70;7.28;;;7.60;57.70;;;;;;348498;28;964;-58
2023/12/24 00:57:41;;;;;;;10.30;7.82;;;7.60;57.60;;;;;;348426;28;1016;-57
2023/12/24 00:57:52;;;;;;;11.23;8.32;;;7.60;57.60;;;;;;348489;28;1371;-59
2023/12/24 00:58:03;;;;;;;12.43;8.83;;;7.60;57.60;;;;;;348457;28;960;-58
2023/12/24 00:58:15;;;;;;;11.70;8.52;;;7.60;57.60;;;;;;348447;28;1005;-58
2023/12/24 00:58:27;;;;;;;11.70;8.43;;;7.60;57.60;;;;;;348487;28;1080;-58
2023/12/24 00:58:37;;;;;;;10.68;7.75;;;7.60;57.60;;;;;;348392;28;1068;-58
2023/12/24 00:58:48;;;;;;;10.65;7.82;;;7.60;57.60;;;;;;348541;28;865;-57
2023/12/24 00:58:59;;;;;;;9.85;7.55;;;7.60;57.70;;;;;;348489;28;1018;-57
2023/12/24 00:59:10;;;;;;;9.80;7.55;;;7.60;57.70;;;;;;348398;28;1141;-58